Terminal Aerodrome Forecast
Issued by NWS

Home | Current Version | Previous Version | Text Only | Print | Product List | Glossary On
Versions: 1 2 3 4 5 6 7 8 9 10 11 12 13 14 15 16 17 18
420
FTUS46 KMFR 140548
TAFOTH
TAF
KOTH 140548Z 1406/1506 19012KT 5SM -RA BR FEW007 OVC014
     FM141000 21011G17KT 5SM -RA BR BKN006 OVC009
     FM141800 19009KT 5SM -RA BR SCT005 BKN007 OVC010=

USA.gov is the U.S. government's official web portal to all federal, state and local government web resources and services.